Time;durP1;ratioP1;P1;durP2;ratioP2;P2;SDS_P1;SDS_P2;PMS_P1;PMS_P2;Temp;Humidity;BMP_temperature;BMP_pressure;BME280_temperature;BME280_humidity;BME280_pressure;Samples;Min_cycle;Max_cycle;Signal;HPM_P1;HPM_P2
2023/08/03 00:02:00;;;;;;;;;;;;;;;18.23;76.07;98524.38;5060080;28;20421;-80
2023/08/03 00:04:45;;;;;;;;;;;;;;;18.11;74.32;98517.84;5062212;28;20426;-79
2023/08/03 00:07:30;;;;;;;;;;;;;;;18.07;77.61;98523.09;5053497;28;20059;-80
2023/08/03 00:10:16;;;;;;;;;;;;;;;18.13;76.91;98520.78;5062478;28;20425;-80
2023/08/03 00:13:03;;;;;;;;;;;;;;;18.22;76.31;98514.53;5057570;28;20013;-80
2023/08/03 00:15:48;;;;;;;;;;;;;;;18.24;75.34;98503.50;5061773;28;20018;-80
2023/08/03 00:18:33;;;;;;;;;;;;;;;18.01;76.25;98507.91;5051727;28;20076;-80
2023/08/03 00:21:19;;;;;;;;;;;;;;;18.14;76.24;98516.69;5062394;28;20249;-81
2023/08/03 00:24:04;;;;;;;;;;;;;;;18.23;73.85;98501.28;5066920;28;20417;-81
2023/08/03 00:26:50;;;;;;;;;;;;;;;18.06;77.50;98499.25;5066191;28;20029;-81
2023/08/03 00:29:36;;;;;;;;;;;;;;;18.14;75.25;98505.50;5066065;28;20005;-82
2023/08/03 00:32:21;;;;;;;;;;;;;;;18.11;75.22;98501.06;5065440;28;20417;-82
2023/08/03 00:35:07;;;;;;;;;;;;;;;18.11;74.71;98501.06;5057502;28;20488;-81
2023/08/03 00:37:53;;;;;;;;;;;;;;;18.20;75.74;98513.63;5065485;28;20529;-81
2023/08/03 00:40:40;;;;;;;;;;;;;;;18.38;73.39;98518.63;5058133;28;20390;-81
2023/08/03 00:43:25;;;;;;;;;;;;;;;18.40;73.88;98509.63;5066157;28;20549;-82
2023/08/03 00:46:13;;;;;;;;;;;;;;;18.37;73.64;98513.59;5059383;28;20082;-81
2023/08/03 00:49:00;;;;;;;;;;;;;;;18.43;72.47;98520.41;5066183;28;20012;-81
2023/08/03 00:51:45;;;;;;;;;;;;;;;18.49;71.19;98511.75;5058430;28;20429;-82
2023/08/03 00:54:31;;;;;;;;;;;;;;;18.49;71.73;98523.69;5061527;28;20402;-80
2023/08/03 00:57:15;;;;;;;;;;;;;;;18.58;70.46;98536.97;5054783;28;20380;-80
2023/08/03 01:00:01;;;;;;;;;;;;;;;18.47;72.21;98531.19;5063017;28;20437;-81
2023/08/03 01:02:47;;;;;;;;;;;;;;;18.52;71.93;98544.91;5055176;28;20070;-80
2023/08/03 01:05:33;;;;;;;;;;;;;;;18.54;72.24;98542.25;5059797;28;20501;-80
2023/08/03 01:08:18;;;;;;;;;;;;;;;18.35;72.77;98547.75;5058562;28;20379;-80
2023/08/03 01:11:04;;;;;;;;;;;;;;;18.63;70.36;98552.75;5062270;28;20583;-82
2023/08/03 01:13:49;;;;;;;;;;;;;;;18.64;70.93;98556.31;5063236;28;20604;-81
2023/08/03 01:16:35;;;;;;;;;;;;;;;18.59;70.66;98563.63;5057618;28;20426;-80
2023/08/03 01:19:22;;;;;;;;;;;;;;;18.51;70.93;98579.78;5056624;28;20009;-80
2023/08/03 01:22:09;;;;;;;;;;;;;;;18.59;70.90;98558.03;5056598;28;20758;-79
2023/08/03 01:24:55;;;;;;;;;;;;;;;18.56;71.05;98584.38;5057383;28;20017;-81
2023/08/03 01:27:45;;;;;;;;;;;;;;;18.58;70.58;98581.00;5056677;28;20343;-80
2023/08/03 01:30:30;;;;;;;;;;;;;;;18.64;70.46;98589.88;5056049;28;19997;-80
2023/08/03 01:33:15;;;;;;;;;;;;;;;18.62;71.19;98587.66;5056460;28;20413;-81
2023/08/03 01:36:01;;;;;;;;;;;;;;;18.56;71.81;98578.78;5056902;28;20021;-79
2023/08/03 01:38:53;;;;;;;;;;;;;;;18.49;71.12;98585.22;5049143;28;20525;-79
2023/08/03 01:41:41;;;;;;;;;;;;;;;18.51;71.08;98604.97;5057888;28;20367;-79
2023/08/03 01:44:27;;;;;;;;;;;;;;;18.51;71.15;98616.16;5050353;28;19998;-79
2023/08/03 01:47:12;;;;;;;;;;;;;;;18.33;72.06;98602.78;5056627;28;20001;-79
2023/08/03 01:49:58;;;;;;;;;;;;;;;18.37;71.83;98611.50;5049713;28;20366;-81
2023/08/03 01:52:43;;;;;;;;;;;;;;;18.33;72.03;98617.50;5057737;28;20001;-81
2023/08/03 01:55:28;;;;;;;;;;;;;;;18.45;70.84;98621.25;5051682;28;20017;-80
2023/08/03 01:58:15;;;;;;;;;;;;;;;18.44;71.53;98616.97;5056522;28;20308;-79
2023/08/03 02:01:00;;;;;;;;;;;;;;;18.41;71.19;98623.00;5057302;28;20367;-78
2023/08/03 02:03:45;;;;;;;;;;;;;;;18.45;72.01;98614.94;5058228;28;19997;-80
2023/08/03 02:06:31;;;;;;;;;;;;;;;18.62;70.82;98621.22;5057071;28;20380;-78
2023/08/03 02:09:16;;;;;;;;;;;;;;;18.44;71.42;98616.97;5057649;28;20001;-80
2023/08/03 02:12:01;;;;;;;;;;;;;;;18.51;70.98;98632.94;5057276;28;20378;-81
2023/08/03 02:14:48;;;;;;;;;;;;;;;18.43;71.35;98623.91;5058414;28;20045;-79
2023/08/03 02:17:33;;;;;;;;;;;;;;;18.44;72.04;98625.38;5066791;28;20610;-80
2023/08/03 02:20:18;;;;;;;;;;;;;;;18.38;71.81;98624.91;5059360;28;20018;-81
2023/08/03 02:23:03;;;;;;;;;;;;;;;18.33;71.37;98630.75;5061980;28;20005;-81
2023/08/03 02:25:51;;;;;;;;;;;;;;;18.37;71.80;98645.06;5062941;28;20181;-81
2023/08/03 02:28:36;;;;;;;;;;;;;;;18.29;72.67;98650.75;5061008;28;19997;-81
2023/08/03 02:31:22;;;;;;;;;;;;;;;18.33;71.94;98648.25;5061435;28;20081;-81
2023/08/03 02:34:10;;;;;;;;;;;;;;;18.40;72.69;98643.88;5061598;28;20317;-79
2023/08/03 02:37:00;;;;;;;;;;;;;;;18.30;72.06;98657.81;5046597;28;20010;-79
2023/08/03 02:39:46;;;;;;;;;;;;;;;18.30;72.74;98657.81;5056734;28;20397;-78
2023/08/03 02:42:31;;;;;;;;;;;;;;;18.29;72.48;98659.13;5048932;28;20002;-79
2023/08/03 02:45:17;;;;;;;;;;;;;;;18.30;72.45;98662.66;5056697;28;20018;-79
2023/08/03 02:48:05;;;;;;;;;;;;;;;18.30;73.06;98663.41;5048996;28;20401;-79
2023/08/03 02:50:50;;;;;;;;;;;;;;;18.29;72.28;98652.78;5057630;28;20001;-80
2023/08/03 02:53:36;;;;;;;;;;;;;;;18.12;73.94;98656.31;5049249;28;19997;-80
2023/08/03 02:56:22;;;;;;;;;;;;;;;18.11;72.83;98663.22;5057145;28;20021;-80
2023/08/03 02:59:18;;;;;;;;;;;;;;;18.13;73.71;98665.41;5050077;28;20382;-79
2023/08/03 03:02:03;;;;;;;;;;;;;;;18.10;73.11;98672.16;5057536;28;20124;-80
2023/08/03 03:04:55;;;;;;;;;;;;;;;18.00;73.68;98680.47;5056895;28;20021;-80
2023/08/03 03:07:42;;;;;;;;;;;;;;;17.93;73.46;98680.53;5056358;28;20135;-79
2023/08/03 03:10:27;;;;;;;;;;;;;;;17.98;73.23;98685.16;5057283;28;20084;-80
2023/08/03 03:13:12;;;;;;;;;;;;;;;18.01;73.46;98690.34;5057600;28;20001;-80
2023/08/03 03:16:01;;;;;;;;;;;;;;;18.00;73.80;98700.03;5057041;28;20017;-79
2023/08/03 03:18:47;;;;;;;;;;;;;;;17.93;73.84;98686.88;5048387;28;20135;-80
2023/08/03 03:21:33;;;;;;;;;;;;;;;17.95;73.36;98689.84;5056940;28;20008;-80
2023/08/03 03:24:18;;;;;;;;;;;;;;;17.92;74.15;98695.81;5056572;28;20016;-80
2023/08/03 03:27:05;;;;;;;;;;;;;;;17.97;73.50;98681.59;5055488;28;20006;-80
2023/08/03 03:29:54;;;;;;;;;;;;;;;18.15;73.00;98691.50;5055356;28;20715;-80
2023/08/03 03:32:39;;;;;;;;;;;;;;;18.13;73.38;98693.38;5055583;28;20002;-80
2023/08/03 03:35:24;;;;;;;;;;;;;;;18.11;73.20;98688.38;5048176;28;20402;-80
2023/08/03 03:38:11;;;;;;;;;;;;;;;18.07;73.89;98693.63;5054801;28;20045;-80
2023/08/03 03:40:55;;;;;;;;;;;;;;;18.06;74.09;98683.75;5055897;28;20512;-79
2023/08/03 03:43:41;;;;;;;;;;;;;;;18.13;73.53;98671.75;5054745;28;20425;-80
2023/08/03 03:46:26;;;;;;;;;;;;;;;18.04;73.99;98691.25;5046115;28;20425;-79
2023/08/03 03:49:11;;;;;;;;;;;;;;;18.05;73.90;98685.06;5053944;28;20449;-79
2023/08/03 03:51:56;;;;;;;;;;;;;;;17.90;74.83;98699.22;5045143;28;20431;-79
2023/08/03 03:54:44;;;;;;;;;;;;;;;17.88;75.14;98713.00;5052510;28;20398;-80
2023/08/03 03:57:32;;;;;;;;;;;;;;;17.78;75.74;98720.53;5045727;28;20407;-80
2023/08/03 04:00:17;;;;;;;;;;;;;;;17.76;75.28;98717.56;5051093;28;20415;-79
2023/08/03 04:03:02;;;;;;;;;;;;;;;17.87;75.13;98717.09;5052652;28;20439;-80
2023/08/03 04:05:47;;;;;;;;;;;;;;;17.91;75.83;98717.47;5052060;28;20437;-79
2023/08/03 04:08:32;;;;;;;;;;;;;;;17.97;74.99;98720.75;5051681;28;20501;-79
2023/08/03 04:11:19;;;;;;;;;;;;;;;17.86;75.32;98734.47;5052174;28;20668;-81
2023/08/03 04:14:05;;;;;;;;;;;;;;;17.85;76.00;98730.19;5061532;28;20589;-80
2023/08/03 04:16:50;;;;;;;;;;;;;;;17.83;76.09;98739.13;5050712;28;20426;-80
2023/08/03 04:19:35;;;;;;;;;;;;;;;17.78;76.55;98745.69;5050187;28;20395;-80
2023/08/03 04:22:21;;;;;;;;;;;;;;;17.74;76.48;98736.97;5060401;28;20006;-81
2023/08/03 04:25:07;;;;;;;;;;;;;;;17.81;76.28;98750.16;5060687;28;20372;-81
2023/08/03 04:27:54;;;;;;;;;;;;;;;17.87;75.75;98745.06;5062019;28;20443;-80
2023/08/03 04:30:45;;;;;;;;;;;;;;;18.00;74.93;98741.97;5063193;28;20368;-81
2023/08/03 04:33:31;;;;;;;;;;;;;;;18.00;74.77;98747.56;5064229;28;20415;-80
2023/08/03 04:36:20;;;;;;;;;;;;;;;18.05;74.17;98754.97;5062077;28;20398;-81
2023/08/03 04:39:05;;;;;;;;;;;;;;;18.09;74.01;98755.31;5058699;28;20224;-81
2023/08/03 04:41:51;;;;;;;;;;;;;;;18.13;73.99;98761.22;5063736;28;20379;-81
2023/08/03 04:44:41;;;;;;;;;;;;;;;18.08;74.69;98759.44;5058079;28;20522;-81
2023/08/03 04:47:27;;;;;;;;;;;;;;;18.06;74.52;98767.63;5046373;28;20006;-81
2023/08/03 04:50:19;;;;;;;;;;;;;;;18.20;73.75;98770.84;5043601;28;20002;-81
2023/08/03 04:53:04;;;;;;;;;;;;;;;18.13;73.95;98760.47;5042108;28;20415;-81
2023/08/03 04:55:49;;;;;;;;;;;;;;;18.20;73.99;98765.25;5044744;28;20081;-80
2023/08/03 04:58:35;;;;;;;;;;;;;;;18.22;73.50;98779.41;5046749;28;20009;-81
2023/08/03 05:01:22;;;;;;;;;;;;;;;18.24;74.08;98776.78;5058060;28;20038;-79
2023/08/03 05:04:09;;;;;;;;;;;;;;;18.23;74.01;98776.03;5060413;28;20056;-80
2023/08/03 05:06:55;;;;;;;;;;;;;;;18.28;74.21;98777.88;5061723;28;20011;-80
2023/08/03 05:09:40;;;;;;;;;;;;;;;18.31;74.33;98776.75;5062303;28;20406;-79
2023/08/03 05:12:25;;;;;;;;;;;;;;;18.30;74.60;98778.06;5062976;28;20431;-79
2023/08/03 05:15:10;;;;;;;;;;;;;;;18.40;74.60;98778.88;5061305;28;20024;-80
2023/08/03 05:18:01;;;;;;;;;;;;;;;18.47;73.99;98777.31;5060977;28;20001;-80
2023/08/03 05:20:46;;;;;;;;;;;;;;;18.46;72.58;98790.56;5060296;28;20088;-81
2023/08/03 05:23:31;;;;;;;;;;;;;;;18.45;72.76;98783.50;5061897;28;20451;-79
2023/08/03 05:26:17;;;;;;;;;;;;;;;18.53;71.37;98784.16;5060396;28;20081;-79
2023/08/03 05:29:03;;;;;;;;;;;;;;;18.52;71.74;98779.88;5063161;28;20497;-80
2023/08/03 05:31:49;;;;;;;;;;;;;;;18.45;71.71;98786.28;5060969;28;20001;-80
2023/08/03 05:34:35;;;;;;;;;;;;;;;18.55;71.18;98783.59;5061236;28;20001;-80
2023/08/03 05:37:20;;;;;;;;;;;;;;;18.46;71.33;98787.75;5061638;28;20425;-80
2023/08/03 05:40:06;;;;;;;;;;;;;;;18.55;71.95;98789.91;5061801;28;20437;-80
2023/08/03 05:42:51;;;;;;;;;;;;;;;18.62;71.29;98799.56;5061872;28;20005;-80
2023/08/03 05:45:38;;;;;;;;;;;;;;;18.59;71.65;98801.44;5061877;28;20032;-81
2023/08/03 05:48:24;;;;;;;;;;;;;;;18.58;71.14;98794.38;5061323;28;20450;-81
2023/08/03 05:51:12;;;;;;;;;;;;;;;18.62;71.25;98800.28;5062143;28;20426;-80
2023/08/03 05:53:58;;;;;;;;;;;;;;;18.62;70.40;98802.38;5061345;28;20103;-81
2023/08/03 05:56:43;;;;;;;;;;;;;;;18.51;72.21;98803.59;5061279;28;20654;-80
2023/08/03 05:59:28;;;;;;;;;;;;;;;18.45;71.67;98814.25;5059476;28;20002;-79
2023/08/03 06:02:20;;;;;;;;;;;;;;;18.59;71.37;98818.22;5059971;28;20364;-79
2023/08/03 06:05:06;;;;;;;;;;;;;;;18.59;72.85;98821.03;5060881;28;20017;-79
2023/08/03 06:07:53;;;;;;;;;;;;;;;18.43;72.11;98818.97;5060702;28;20450;-80
2023/08/03 06:10:38;;;;;;;;;;;;;;;18.31;73.42;98821.50;5062291;28;20436;-81
2023/08/03 06:13:26;;;;;;;;;;;;;;;18.28;73.31;98822.63;5060922;28;20410;-80
2023/08/03 06:16:12;;;;;;;;;;;;;;;18.37;73.67;98824.81;5061476;28;20410;-82
2023/08/03 06:18:59;;;;;;;;;;;;;;;18.34;73.31;98828.00;5060200;28;20395;-82
2023/08/03 06:21:44;;;;;;;;;;;;;;;18.37;74.34;98827.59;5060322;28;20021;-80
2023/08/03 06:24:30;;;;;;;;;;;;;;;18.16;74.12;98837.63;5062098;28;20002;-81
2023/08/03 06:27:17;;;;;;;;;;;;;;;18.13;75.42;98845.09;5063300;28;20085;-82
2023/08/03 06:30:02;;;;;;;;;;;;;;;18.13;75.59;98847.13;5063722;28;20459;-82
2023/08/03 06:32:47;;;;;;;;;;;;;;;18.17;76.55;98853.81;5061205;28;20002;-82
2023/08/03 06:35:39;;;;;;;;;;;;;;;18.09;75.81;98869.94;5063360;28;20028;-80
2023/08/03 06:38:24;;;;;;;;;;;;;;;17.89;77.41;98865.41;5060625;28;20382;-81
2023/08/03 06:41:11;;;;;;;;;;;;;;;17.89;78.36;98865.41;5063462;28;20151;-82
2023/08/03 06:43:58;;;;;;;;;;;;;;;17.92;78.89;98867.06;5063954;28;20447;-81
2023/08/03 06:46:43;;;;;;;;;;;;;;;17.98;76.50;98861.97;5061944;28;20457;-81
2023/08/03 06:49:28;;;;;;;;;;;;;;;18.00;76.11;98878.94;5060407;28;20002;-84
2023/08/03 06:52:13;;;;;;;;;;;;;;;17.78;79.67;98888.19;5059993;28;20013;-81
2023/08/03 06:54:58;;;;;;;;;;;;;;;17.71;80.13;98882.66;5059447;28;20435;-83
2023/08/03 06:57:46;;;;;;;;;;;;;;;17.72;80.12;98893.28;5059947;28;20435;-82
2023/08/03 07:00:31;;;;;;;;;;;;;;;17.65;82.14;98891.25;5060665;28;20024;-84
2023/08/03 07:03:17;;;;;;;;;;;;;;;17.73;79.04;98902.38;5061222;28;20379;-84
2023/08/03 07:06:04;;;;;;;;;;;;;;;17.75;78.45;98897.72;5062652;28;20383;-83
2023/08/03 07:08:49;;;;;;;;;;;;;;;17.87;78.17;98907.13;5060084;28;20005;-83
2023/08/03 07:11:36;;;;;;;;;;;;;;;17.76;79.95;98910.38;5062117;28;20001;-84
2023/08/03 07:14:26;;;;;;;;;;;;;;;17.80;78.88;98918.38;5061272;28;20609;-83
2023/08/03 07:17:13;;;;;;;;;;;;;;;17.77;81.76;98928.63;5063610;28;20001;-82
2023/08/03 07:20:00;;;;;;;;;;;;;;;17.87;78.63;98926.72;5062905;28;20355;-83
2023/08/03 07:22:47;;;;;;;;;;;;;;;17.96;78.30;98931.69;5064521;28;20023;-84
2023/08/03 07:25:33;;;;;;;;;;;;;;;17.82;79.98;98930.47;5063804;28;20414;-83
2023/08/03 07:28:20;;;;;;;;;;;;;;;17.82;80.83;98936.06;5062341;28;20236;-83
2023/08/03 07:31:13;;;;;;;;;;;;;;;17.86;79.55;98944.78;5064562;28;20068;-83
2023/08/03 07:33:58;;;;;;;;;;;;;;;17.91;79.54;98957.06;5062137;28;20378;-82
2023/08/03 07:36:45;;;;;;;;;;;;;;;18.05;78.93;98949.91;5061093;28;20021;-82
2023/08/03 07:39:32;;;;;;;;;;;;;;;18.04;77.52;98971.53;5060677;28;20024;-82
2023/08/03 07:42:17;;;;;;;;;;;;;;;18.08;78.08;98971.13;5059809;28;20386;-81
2023/08/03 07:45:03;;;;;;;;;;;;;;;18.27;77.86;98971.38;5061443;28;20049;-82
2023/08/03 07:48:12;;;;;;;;;;;;;;;18.29;76.48;98980.75;5060419;28;20002;-82
2023/08/03 07:50:58;;;;;;;;;;;;;;;18.22;77.49;98975.13;5061103;28;20394;-79
2023/08/03 07:53:43;;;;;;;;;;;;;;;18.29;76.49;98980.75;5058778;28;20024;-82
2023/08/03 07:56:33;;;;;;;;;;;;;;;18.44;76.11;98991.09;5058003;28;20438;-81
2023/08/03 07:59:18;;;;;;;;;;;;;;;18.47;75.60;98984.34;5059562;28;20005;-81
2023/08/03 08:02:06;;;;;;;;;;;;;;;18.42;76.08;98994.44;5060698;28;20021;-81
2023/08/03 08:04:54;;;;;;;;;;;;;;;18.34;76.73;98999.34;5063076;28;20497;-80
2023/08/03 08:07:41;;;;;;;;;;;;;;;18.40;75.33;99001.91;5060321;28;20013;-83
2023/08/03 08:10:28;;;;;;;;;;;;;;;18.33;75.33;99002.72;5059800;28;19997;-82
2023/08/03 08:13:16;;;;;;;;;;;;;;;18.40;75.72;99013.84;5060753;28;19998;-81
2023/08/03 08:16:06;;;;;;;;;;;;;;;18.38;75.90;99004.53;5060124;28;20463;-82
2023/08/03 08:19:11;;;;;;;;;;;;;;;18.69;74.52;99005.81;5060914;28;20009;-81
2023/08/03 08:25:54;;;;;;;;;;;;;;;18.51;75.73;99023.84;5057962;28;20020;-80
2023/08/03 08:28:58;;;;;;;;;;;;;;;18.60;75.61;99032.38;5060092;28;20002;-80
2023/08/03 08:31:55;;;;;;;;;;;;;;;18.36;76.29;99030.28;5059383;28;20005;-82
2023/08/03 08:34:53;;;;;;;;;;;;;;;18.43;77.15;99043.47;5061016;28;20020;-82
2023/08/03 08:38:30;;;;;;;;;;;;;;;18.42;75.88;99044.78;5060706;28;20005;-82
2023/08/03 08:41:45;;;;;;;;;;;;;;;18.57;76.34;99043.94;5062084;28;20017;-81
2023/08/03 08:44:37;;;;;;;;;;;;;;;18.63;76.45;99042.41;5062065;28;20033;-81
2023/08/03 08:47:25;;;;;;;;;;;;;;;18.48;75.52;99045.31;5061575;28;20005;-81
2023/08/03 08:50:20;;;;;;;;;;;;;;;18.50;74.84;99051.09;5061088;28;20394;-82
2023/08/03 08:53:07;;;;;;;;;;;;;;;18.57;76.10;99061.50;5064413;28;20006;-82
2023/08/03 08:55:56;;;;;;;;;;;;;;;18.47;75.81;99076.66;5062062;28;20100;-81
2023/08/03 08:58:43;;;;;;;;;;;;;;;18.25;77.95;99086.63;5062778;28;20008;-82
2023/08/03 09:01:28;;;;;;;;;;;;;;;17.98;78.98;99080.00;5063099;28;20017;-83
2023/08/03 09:04:14;;;;;;;;;;;;;;;18.05;78.79;99084.84;5062382;28;20073;-83
2023/08/03 09:06:59;;;;;;;;;;;;;;;18.07;80.32;99093.41;5063374;28;19998;-82
2023/08/03 09:09:45;;;;;;;;;;;;;;;17.95;79.92;99095.13;5064117;28;20056;-83
2023/08/03 09:12:35;;;;;;;;;;;;;;;17.68;82.10;99099.66;5062208;28;19997;-81
2023/08/03 09:15:20;;;;;;;;;;;;;;;17.67;83.29;99106.56;5057710;28;20017;-81
2023/08/03 09:18:05;;;;;;;;;;;;;;;17.85;82.94;99111.00;5060190;28;20004;-80
2023/08/03 09:20:50;;;;;;;;;;;;;;;18.05;83.65;99104.41;5058942;28;20017;-82
2023/08/03 09:23:37;;;;;;;;;;;;;;;18.11;82.31;99110.53;5060003;28;20096;-81
2023/08/03 09:26:25;;;;;;;;;;;;;;;18.42;82.05;99120.31;5060525;28;20021;-82
2023/08/03 09:29:13;;;;;;;;;;;;;;;18.56;79.29;99121.53;5058767;28;19997;-80
2023/08/03 09:32:02;;;;;;;;;;;;;;;18.63;79.37;99120.75;5058300;28;20088;-81
2023/08/03 09:34:48;;;;;;;;;;;;;;;18.89;80.84;99125.84;5058252;28;20021;-80
2023/08/03 09:37:35;;;;;;;;;;;;;;;18.97;76.68;99126.53;5058476;28;20135;-82
2023/08/03 09:40:21;;;;;;;;;;;;;;;19.34;76.13;99130.38;5057961;28;20041;-82
2023/08/03 09:43:06;;;;;;;;;;;;;;;19.27;76.86;99131.94;5058271;28;20100;-81
2023/08/03 09:45:54;;;;;;;;;;;;;;;19.45;74.24;99127.88;5057707;28;20017;-82
2023/08/03 09:48:44;;;;;;;;;;;;;;;19.51;73.51;99139.56;5057834;28;20034;-81
2023/08/03 09:51:37;;;;;;;;;;;;;;;19.41;74.79;99141.50;5057397;28;20482;-81
2023/08/03 09:54:30;;;;;;;;;;;;;;;19.28;74.35;99149.47;5055606;28;20001;-80
2023/08/03 09:57:18;;;;;;;;;;;;;;;19.55;74.50;99150.38;5056159;28;20387;-80
2023/08/03 10:00:06;;;;;;;;;;;;;;;19.80;72.10;99149.00;5056339;28;20473;-80
2023/08/03 10:03:04;;;;;;;;;;;;;;;20.26;69.79;99155.66;5056358;28;20407;-80
2023/08/03 10:05:58;;;;;;;;;;;;;;;20.49;69.77;99178.56;5055093;28;20454;-81
2023/08/03 10:08:48;;;;;;;;;;;;;;;20.18;69.38;99154.97;5055863;28;20364;-81
2023/08/03 10:11:40;;;;;;;;;;;;;;;20.62;69.85;99152.97;5054899;28;20340;-80
2023/08/03 10:14:28;;;;;;;;;;;;;;;21.06;67.16;99153.66;5054343;28;20484;-80
2023/08/03 10:17:13;;;;;;;;;;;;;;;21.29;66.51;99165.31;5058181;28;20010;-81
2023/08/03 10:20:00;;;;;;;;;;;;;;;21.17;65.51;99161.56;5061609;28;20404;-82
2023/08/03 10:23:10;;;;;;;;;;;;;;;21.14;66.21;99171.16;5062716;28;20300;-82
2023/08/03 10:25:59;;;;;;;;;;;;;;;20.95;67.37;99173.84;5061228;28;20017;-83
2023/08/03 10:28:47;;;;;;;;;;;;;;;20.63;65.76;99172.00;5063163;28;20006;-82
2023/08/03 10:31:51;;;;;;;;;;;;;;;20.55;67.80;99181.84;5061853;28;20005;-81
2023/08/03 10:34:39;;;;;;;;;;;;;;;20.09;68.35;99180.88;5061975;28;20001;-82
2023/08/03 10:37:29;;;;;;;;;;;;;;;20.01;69.08;99185.78;5061974;28;20379;-82
2023/08/03 10:40:22;;;;;;;;;;;;;;;20.03;68.25;99194.41;5060632;28;20007;-82
2023/08/03 10:43:09;;;;;;;;;;;;;;;20.01;68.91;99191.41;5061661;28;20544;-82
2023/08/03 10:45:54;;;;;;;;;;;;;;;19.81;68.68;99212.16;5061370;28;20410;-82
2023/08/03 10:48:40;;;;;;;;;;;;;;;19.90;68.62;99208.72;5062243;28;20387;-81
2023/08/03 10:51:26;;;;;;;;;;;;;;;19.91;69.02;99213.00;5060940;28;20352;-82
2023/08/03 10:54:12;;;;;;;;;;;;;;;19.97;68.81;99214.28;5061496;28;20008;-80
2023/08/03 10:57:01;;;;;;;;;;;;;;;19.95;68.12;99216.16;5060505;28;20446;-80
2023/08/03 10:59:47;;;;;;;;;;;;;;;19.95;68.42;99207.75;5061824;28;20006;-83
2023/08/03 11:02:35;;;;;;;;;;;;;;;19.91;68.91;99222.19;5060685;28;20059;-82
2023/08/03 11:05:21;;;;;;;;;;;;;;;19.95;68.00;99216.16;5062319;28;20610;-82
2023/08/03 11:08:09;;;;;;;;;;;;;;;20.11;67.82;99223.88;5060983;28;20002;-80
2023/08/03 11:10:57;;;;;;;;;;;;;;;20.02;68.13;99235.00;5059751;28;20008;-81
2023/08/03 11:13:46;;;;;;;;;;;;;;;20.29;67.20;99242.22;5058416;28;20008;-83
2023/08/03 11:16:34;;;;;;;;;;;;;;;20.48;67.18;99239.56;5060094;28;20081;-82
2023/08/03 11:19:22;;;;;;;;;;;;;;;20.40;66.93;99243.78;5059516;28;20002;-80
2023/08/03 11:22:08;;;;;;;;;;;;;;;20.79;66.35;99251.19;5060045;28;20262;-82
2023/08/03 11:24:59;;;;;;;;;;;;;;;21.27;65.96;99238.22;5062711;28;20021;-80
2023/08/03 11:27:48;;;;;;;;;;;;;;;21.81;64.96;99254.47;5060490;28;20077;-81
2023/08/03 11:30:43;;;;;;;;;;;;;;;22.43;62.20;99241.56;5058933;28;20375;-81
2023/08/03 11:33:34;;;;;;;;;;;;;;;22.61;63.62;99240.06;5062017;28;20360;-82
2023/08/03 11:36:20;;;;;;;;;;;;;;;22.41;62.55;99238.59;5059198;28;20400;-80
2023/08/03 11:39:05;;;;;;;;;;;;;;;22.17;62.58;99242.41;5062613;28;20081;-81
2023/08/03 11:41:51;;;;;;;;;;;;;;;21.80;62.42;99255.03;5062276;28;20445;-81
2023/08/03 11:44:39;;;;;;;;;;;;;;;21.39;62.70;99261.66;5063117;28;20660;-82
2023/08/03 11:47:25;;;;;;;;;;;;;;;21.17;62.87;99262.72;5063075;28;20763;-81
2023/08/03 11:50:10;;;;;;;;;;;;;;;21.35;62.52;99266.94;5062854;28;20002;-81
2023/08/03 11:52:59;;;;;;;;;;;;;;;21.54;62.06;99272.66;5062298;28;20382;-82
2023/08/03 11:55:44;;;;;;;;;;;;;;;21.86;60.67;99259.06;5062928;28;20017;-81
2023/08/03 11:58:29;;;;;;;;;;;;;;;22.05;60.53;99270.34;5060884;28;20009;-81
2023/08/03 12:01:15;;;;;;;;;;;;;;;22.46;59.34;99282.63;5061618;28;20383;-81
2023/08/03 12:04:05;;;;;;;;;;;;;;;22.69;59.72;99281.56;5062004;28;20001;-82
2023/08/03 12:06:53;;;;;;;;;;;;;;;22.36;58.89;99281.84;5061558;28;20487;-80
2023/08/03 12:09:40;;;;;;;;;;;;;;;22.92;57.94;99278.31;5061529;28;20045;-82
2023/08/03 12:12:26;;;;;;;;;;;;;;;22.59;58.97;99282.94;5060745;28;20399;-81
2023/08/03 12:18:47;;;;;;;;;;;;;;;22.39;59.21;99291.91;5049563;28;20324;-82
2023/08/03 12:21:42;;;;;;;;;;;;;;;22.26;58.26;99309.22;4997355;28;20105;-82
2023/08/03 12:24:45;;;;;;;;;;;;;;;22.38;59.23;99301.69;5029063;28;20056;-82
2023/08/03 12:27:44;;;;;;;;;;;;;;;22.46;59.92;99324.84;5032629;28;20002;-82
2023/08/03 12:35:19;;;;;;;;;;;;;;;21.64;59.83;99343.72;4920850;29;20394;-82
2023/08/03 12:38:09;;;;;;;;;;;;;;;21.72;59.96;99347.22;4925545;29;20003;-81
2023/08/03 12:41:04;;;;;;;;;;;;;;;22.03;60.18;99339.78;5038122;28;20002;-79
2023/08/03 12:44:06;;;;;;;;;;;;;;;22.09;60.71;99343.09;5038480;28;20041;-82
2023/08/03 12:47:04;;;;;;;;;;;;;;;21.94;60.89;99348.94;5037406;28;20041;-80
2023/08/03 12:49:55;;;;;;;;;;;;;;;21.66;62.61;99346.75;5036553;28;20414;-81
2023/08/03 12:53:00;;;;;;;;;;;;;;;22.24;60.25;99348.47;5038448;28;19998;-80
2023/08/03 12:59:12;;;;;;;;;;;;;;;22.00;60.24;99366.28;5050158;28;19997;-81
2023/08/03 13:02:04;;;;;;;;;;;;;;;21.62;62.14;99363.25;5038224;28;20025;-82
2023/08/03 13:04:55;;;;;;;;;;;;;;;21.33;62.01;99365.91;5050478;28;20022;-84
2023/08/03 13:07:45;;;;;;;;;;;;;;;21.34;62.36;99363.81;5051093;28;19998;-83
2023/08/03 13:10:39;;;;;;;;;;;;;;;21.10;62.98;99381.56;5052049;28;20027;-81
2023/08/03 13:13:48;;;;;;;;;;;;;;;21.05;64.32;99385.34;5052062;28;20013;-81
2023/08/03 13:16:48;;;;;;;;;;;;;;;;;;;;;
2023/08/03 13:19:43;;;;;;;;;;;;;;;21.35;65.07;99401.84;5036264;28;20023;-81
2023/08/03 13:22:39;;;;;;;;;;;;;;;21.89;64.13;99411.84;5038212;28;20021;-83
2023/08/03 13:25:37;;;;;;;;;;;;;;;22.59;61.69;99406.84;5038735;28;20120;-81
2023/08/03 13:28:39;;;;;;;;;;;;;;;23.09;59.97;99411.34;5038783;28;20010;-83
2023/08/03 13:31:40;;;;;;;;;;;;;;;23.29;58.79;99387.50;5039063;28;19997;-80
2023/08/03 13:34:31;;;;;;;;;;;;;;;23.40;57.46;99397.41;5038772;28;20005;-81
2023/08/03 13:37:36;;;;;;;;;;;;;;;22.92;58.16;99410.72;5051087;28;20002;-80
2023/08/03 13:40:37;;;;;;;;;;;;;;;22.51;59.72;99434.38;5039011;28;20005;-80
2023/08/03 13:43:23;;;;;;;;;;;;;;;22.95;58.25;99430.03;5037021;28;20119;-82
2023/08/03 13:46:08;;;;;;;;;;;;;;;22.64;58.31;99436.78;5038710;28;20024;-81
2023/08/03 13:48:55;;;;;;;;;;;;;;;22.41;59.50;99435.66;5041285;28;20017;-83
2023/08/03 13:51:40;;;;;;;;;;;;;;;22.10;60.01;99434.63;5041672;28;20002;-83
2023/08/03 13:54:25;;;;;;;;;;;;;;;21.77;60.24;99453.09;5054099;28;20415;-83
2023/08/03 13:57:10;;;;;;;;;;;;;;;21.51;63.10;99454.50;5038840;28;20595;-81
2023/08/03 13:59:56;;;;;;;;;;;;;;;21.46;63.16;99466.00;5050806;28;20427;-81
2023/08/03 14:02:42;;;;;;;;;;;;;;;21.09;64.76;99481.94;5052277;28;20085;-82
2023/08/03 14:05:28;;;;;;;;;;;;;;;20.52;70.99;99497.41;5038841;28;20044;-82
2023/08/03 14:08:14;;;;;;;;;;;;;;;19.50;76.31;99496.78;5040712;28;20029;-81
2023/08/03 14:10:59;;;;;;;;;;;;;;;19.07;79.22;99497.03;5037241;28;20006;-81
2023/08/03 14:13:45;;;;;;;;;;;;;;;18.96;80.64;99508.63;5039848;28;20005;-81
2023/08/03 14:16:31;;;;;;;;;;;;;;;18.95;80.38;99498.75;5039285;28;20021;-82
2023/08/03 14:19:17;;;;;;;;;;;;;;;18.85;79.19;99511.78;5037011;28;20025;-82
2023/08/03 14:22:03;;;;;;;;;;;;;;;18.64;80.23;99530.81;5031421;28;19997;-82
2023/08/03 14:24:59;;;;;;;;;;;;;;;18.52;80.93;99512.19;5025866;28;20022;-82
2023/08/03 14:27:45;;;;;;;;;;;;;;;18.48;82.18;99528.56;5032711;28;20002;-82
2023/08/03 14:30:34;;;;;;;;;;;;;;;18.45;81.40;99535.28;5029786;28;19998;-83
2023/08/03 14:33:32;;;;;;;;;;;;;;;18.35;81.71;99537.88;5033253;28;20005;-82
2023/08/03 14:36:20;;;;;;;;;;;;;;;18.23;83.08;99547.91;5026275;28;20121;-84
2023/08/03 14:39:06;;;;;;;;;;;;;;;18.13;83.42;99555.31;5031930;28;20013;-83
2023/08/03 14:41:58;;;;;;;;;;;;;;;18.12;84.77;99570.59;5037193;28;20045;-83
2023/08/03 14:44:43;;;;;;;;;;;;;;;18.12;85.19;99567.06;5032692;28;20009;-82
2023/08/03 14:47:28;;;;;;;;;;;;;;;18.16;84.52;99570.97;5022173;28;19998;-81
2023/08/03 14:50:13;;;;;;;;;;;;;;;18.18;85.95;99574.00;5032419;28;20005;-82
2023/08/03 14:52:58;;;;;;;;;;;;;;;18.30;85.33;99591.97;5035822;28;20002;-80